sensor_id;sensor_type;location;lat;lon;timestamp;P1;durP1;ratioP1;P2;durP2;ratioP2
65863;SDS011;52639;51.180;20.460;2023-04-25T00:01:32;23.63;;;13.77;;
65863;SDS011;52639;51.180;20.460;2023-04-25T00:05:37;22.60;;;15.07;;
65863;SDS011;52639;51.180;20.460;2023-04-25T00:09:41;22.92;;;14.98;;
65863;SDS011;52639;51.180;20.460;2023-04-25T00:13:46;29.02;;;15.55;;
65863;SDS011;52639;51.180;20.460;2023-04-25T00:17:50;22.23;;;14.65;;
65863;SDS011;52639;51.180;20.460;2023-04-25T00:21:57;19.15;;;12.95;;
65863;SDS011;52639;51.180;20.460;2023-04-25T00:26:00;21.33;;;13.18;;
65863;SDS011;52639;51.180;20.460;2023-04-25T00:30:06;22.15;;;14.57;;
65863;SDS011;52639;51.180;20.460;2023-04-25T00:34:10;23.05;;;13.57;;
65863;SDS011;52639;51.180;20.460;2023-04-25T00:38:13;23.13;;;13.20;;
65863;SDS011;52639;51.180;20.460;2023-04-25T00:42:16;23.98;;;13.40;;
65863;SDS011;52639;51.180;20.460;2023-04-25T00:46:20;20.70;;;12.73;;
65863;SDS011;52639;51.180;20.460;2023-04-25T00:50:23;25.13;;;13.40;;
65863;SDS011;52639;51.180;20.460;2023-04-25T00:54:27;24.92;;;13.82;;
65863;SDS011;52639;51.180;20.460;2023-04-25T00:58:31;25.38;;;14.85;;
65863;SDS011;52639;51.180;20.460;2023-04-25T01:02:36;31.70;;;15.18;;
65863;SDS011;52639;51.180;20.460;2023-04-25T01:06:40;29.63;;;14.60;;
65863;SDS011;52639;51.180;20.460;2023-04-25T01:10:43;29.25;;;15.05;;
65863;SDS011;52639;51.180;20.460;2023-04-25T01:14:47;23.77;;;14.07;;
65863;SDS011;52639;51.180;20.460;2023-04-25T01:18:52;23.23;;;14.32;;
65863;SDS011;52639;51.180;20.460;2023-04-25T01:22:57;24.35;;;14.35;;
65863;SDS011;52639;51.180;20.460;2023-04-25T01:27:01;22.48;;;14.07;;
65863;SDS011;52639;51.180;20.460;2023-04-25T01:31:15;21.80;;;12.48;;
65863;SDS011;52639;51.180;20.460;2023-04-25T01:35:20;21.75;;;14.25;;
65863;SDS011;52639;51.180;20.460;2023-04-25T01:39:30;22.00;;;14.30;;
65863;SDS011;52639;51.180;20.460;2023-04-25T01:43:36;20.85;;;13.23;;
65863;SDS011;52639;51.180;20.460;2023-04-25T01:47:41;18.88;;;13.23;;
65863;SDS011;52639;51.180;20.460;2023-04-25T01:51:49;20.38;;;13.70;;
65863;SDS011;52639;51.180;20.460;2023-04-25T01:56:06;18.60;;;12.38;;
65863;SDS011;52639;51.180;20.460;2023-04-25T02:00:11;19.35;;;11.30;;
65863;SDS011;52639;51.180;20.460;2023-04-25T02:04:15;17.67;;;11.48;;
65863;SDS011;52639;51.180;20.460;2023-04-25T02:08:18;19.58;;;11.57;;
65863;SDS011;52639;51.180;20.460;2023-04-25T02:12:22;19.95;;;10.05;;
65863;SDS011;52639;51.180;20.460;2023-04-25T02:16:28;11.75;;;7.93;;
65863;SDS011;52639;51.180;20.460;2023-04-25T02:20:34;13.05;;;8.60;;
65863;SDS011;52639;51.180;20.460;2023-04-25T02:24:37;13.68;;;9.02;;
65863;SDS011;52639;51.180;20.460;2023-04-25T02:28:44;12.57;;;7.25;;
65863;SDS011;52639;51.180;20.460;2023-04-25T02:32:49;10.85;;;6.75;;
65863;SDS011;52639;51.180;20.460;2023-04-25T02:36:57;13.77;;;7.30;;
65863;SDS011;52639;51.180;20.460;2023-04-25T02:41:01;12.85;;;5.15;;
65863;SDS011;52639;51.180;20.460;2023-04-25T02:45:12;6.20;;;4.03;;
65863;SDS011;52639;51.180;20.460;2023-04-25T02:49:31;11.07;;;5.18;;
65863;SDS011;52639;51.180;20.460;2023-04-25T02:54:00;7.00;;;4.93;;
65863;SDS011;52639;51.180;20.460;2023-04-25T02:58:27;8.43;;;4.68;;
65863;SDS011;52639;51.180;20.460;2023-04-25T03:02:52;11.60;;;5.20;;
65863;SDS011;52639;51.180;20.460;2023-04-25T03:07:31;11.23;;;6.22;;
65863;SDS011;52639;51.180;20.460;2023-04-25T03:11:53;16.73;;;7.55;;
65863;SDS011;52639;51.180;20.460;2023-04-25T03:16:12;16.65;;;8.25;;
65863;SDS011;52639;51.180;20.460;2023-04-25T03:20:21;11.80;;;6.40;;
65863;SDS011;52639;51.180;20.460;2023-04-25T03:24:34;12.73;;;6.90;;
65863;SDS011;52639;51.180;20.460;2023-04-25T03:29:10;9.13;;;6.05;;
65863;SDS011;52639;51.180;20.460;2023-04-25T03:43:56;11.55;;;7.45;;
65863;SDS011;52639;51.180;20.460;2023-04-25T03:53:36;12.60;;;6.93;;
65863;SDS011;52639;51.180;20.460;2023-04-25T03:57:44;12.30;;;7.45;;
65863;SDS011;52639;51.180;20.460;2023-04-25T04:02:02;17.15;;;8.48;;
65863;SDS011;52639;51.180;20.460;2023-04-25T04:06:15;15.15;;;8.45;;
65863;SDS011;52639;51.180;20.460;2023-04-25T04:11:03;17.40;;;9.85;;
65863;SDS011;52639;51.180;20.460;2023-04-25T04:15:13;27.08;;;12.05;;
65863;SDS011;52639;51.180;20.460;2023-04-25T04:19:49;15.63;;;9.05;;
65863;SDS011;52639;51.180;20.460;2023-04-25T04:24:00;15.18;;;8.38;;
65863;SDS011;52639;51.180;20.460;2023-04-25T04:28:11;16.52;;;8.90;;
65863;SDS011;52639;51.180;20.460;2023-04-25T04:32:32;20.52;;;11.75;;
65863;SDS011;52639;51.180;20.460;2023-04-25T04:37:01;23.95;;;11.80;;
65863;SDS011;52639;51.180;20.460;2023-04-25T04:41:10;21.25;;;11.68;;
65863;SDS011;52639;51.180;20.460;2023-04-25T04:45:22;20.92;;;11.25;;
65863;SDS011;52639;51.180;20.460;2023-04-25T04:49:40;21.27;;;11.25;;
65863;SDS011;52639;51.180;20.460;2023-04-25T04:54:02;19.40;;;10.43;;
65863;SDS011;52639;51.180;20.460;2023-04-25T04:58:10;16.50;;;9.18;;
65863;SDS011;52639;51.180;20.460;2023-04-25T05:02:22;16.70;;;8.90;;
65863;SDS011;52639;51.180;20.460;2023-04-25T05:06:58;16.95;;;8.35;;
65863;SDS011;52639;51.180;20.460;2023-04-25T05:11:12;15.77;;;9.98;;
65863;SDS011;52639;51.180;20.460;2023-04-25T05:15:34;17.65;;;10.70;;
65863;SDS011;52639;51.180;20.460;2023-04-25T05:19:39;22.50;;;11.95;;
65863;SDS011;52639;51.180;20.460;2023-04-25T05:23:46;17.55;;;11.75;;
65863;SDS011;52639;51.180;20.460;2023-04-25T05:27:53;18.45;;;11.85;;
65863;SDS011;52639;51.180;20.460;2023-04-25T05:31:58;15.55;;;10.55;;
65863;SDS011;52639;51.180;20.460;2023-04-25T05:40:58;18.38;;;11.55;;
65863;SDS011;52639;51.180;20.460;2023-04-25T05:45:07;25.10;;;13.18;;
65863;SDS011;52639;51.180;20.460;2023-04-25T05:49:10;16.05;;;8.27;;
65863;SDS011;52639;51.180;20.460;2023-04-25T05:53:18;26.98;;;11.85;;
65863;SDS011;52639;51.180;20.460;2023-04-25T05:57:24;20.30;;;10.07;;
65863;SDS011;52639;51.180;20.460;2023-04-25T06:01:28;12.05;;;8.13;;
65863;SDS011;52639;51.180;20.460;2023-04-25T06:05:32;17.58;;;9.25;;
65863;SDS011;52639;51.180;20.460;2023-04-25T06:09:34;16.60;;;9.50;;
65863;SDS011;52639;51.180;20.460;2023-04-25T06:13:39;15.10;;;8.80;;
65863;SDS011;52639;51.180;20.460;2023-04-25T06:17:42;17.08;;;9.20;;
65863;SDS011;52639;51.180;20.460;2023-04-25T06:21:45;16.73;;;8.18;;
65863;SDS011;52639;51.180;20.460;2023-04-25T06:25:48;16.95;;;9.63;;
65863;SDS011;52639;51.180;20.460;2023-04-25T06:29:52;26.38;;;11.15;;
65863;SDS011;52639;51.180;20.460;2023-04-25T06:33:55;19.48;;;10.68;;
65863;SDS011;52639;51.180;20.460;2023-04-25T06:37:58;15.13;;;8.93;;
65863;SDS011;52639;51.180;20.460;2023-04-25T06:42:01;13.27;;;7.63;;
65863;SDS011;52639;51.180;20.460;2023-04-25T06:46:05;11.50;;;7.20;;
65863;SDS011;52639;51.180;20.460;2023-04-25T06:50:13;13.07;;;8.20;;
65863;SDS011;52639;51.180;20.460;2023-04-25T06:54:16;9.30;;;5.28;;
65863;SDS011;52639;51.180;20.460;2023-04-25T06:58:22;11.57;;;4.93;;
65863;SDS011;52639;51.180;20.460;2023-04-25T07:02:26;10.60;;;6.00;;
65863;SDS011;52639;51.180;20.460;2023-04-25T07:06:29;14.35;;;7.68;;
65863;SDS011;52639;51.180;20.460;2023-04-25T07:10:33;15.63;;;6.97;;
65863;SDS011;52639;51.180;20.460;2023-04-25T07:14:36;14.20;;;6.70;;
65863;SDS011;52639;51.180;20.460;2023-04-25T07:18:40;14.15;;;6.30;;
65863;SDS011;52639;51.180;20.460;2023-04-25T07:22:43;9.90;;;5.47;;
65863;SDS011;52639;51.180;20.460;2023-04-25T07:26:48;13.35;;;6.53;;
65863;SDS011;52639;51.180;20.460;2023-04-25T07:30:51;10.70;;;5.97;;
65863;SDS011;52639;51.180;20.460;2023-04-25T07:34:56;10.60;;;6.20;;
65863;SDS011;52639;51.180;20.460;2023-04-25T07:38:58;8.45;;;5.18;;
65863;SDS011;52639;51.180;20.460;2023-04-25T07:43:02;10.10;;;6.57;;
65863;SDS011;52639;51.180;20.460;2023-04-25T07:47:05;16.85;;;7.72;;
65863;SDS011;52639;51.180;20.460;2023-04-25T07:51:11;15.25;;;8.05;;
65863;SDS011;52639;51.180;20.460;2023-04-25T07:55:13;14.85;;;7.47;;
65863;SDS011;52639;51.180;20.460;2023-04-25T07:59:16;16.88;;;8.55;;
65863;SDS011;52639;51.180;20.460;2023-04-25T08:03:19;12.13;;;7.75;;
65863;SDS011;52639;51.180;20.460;2023-04-25T08:07:24;11.43;;;7.05;;
65863;SDS011;52639;51.180;20.460;2023-04-25T08:11:27;9.48;;;6.72;;
65863;SDS011;52639;51.180;20.460;2023-04-25T08:15:31;18.48;;;9.60;;
65863;SDS011;52639;51.180;20.460;2023-04-25T08:19:34;15.40;;;9.43;;
65863;SDS011;52639;51.180;20.460;2023-04-25T08:23:40;12.88;;;7.95;;
65863;SDS011;52639;51.180;20.460;2023-04-25T08:27:45;17.48;;;9.10;;
65863;SDS011;52639;51.180;20.460;2023-04-25T08:31:47;15.00;;;8.40;;
65863;SDS011;52639;51.180;20.460;2023-04-25T08:35:50;12.50;;;8.90;;
65863;SDS011;52639;51.180;20.460;2023-04-25T08:39:55;14.18;;;7.82;;
65863;SDS011;52639;51.180;20.460;2023-04-25T08:43:58;13.82;;;8.25;;
65863;SDS011;52639;51.180;20.460;2023-04-25T08:48:03;11.13;;;5.50;;
65863;SDS011;52639;51.180;20.460;2023-04-25T08:52:06;10.75;;;6.30;;
65863;SDS011;52639;51.180;20.460;2023-04-25T08:56:14;8.43;;;6.45;;
65863;SDS011;52639;51.180;20.460;2023-04-25T09:00:21;10.38;;;6.50;;
65863;SDS011;52639;51.180;20.460;2023-04-25T09:04:25;13.38;;;6.82;;
65863;SDS011;52639;51.180;20.460;2023-04-25T09:08:28;9.55;;;6.00;;
65863;SDS011;52639;51.180;20.460;2023-04-25T09:12:32;8.85;;;5.80;;
65863;SDS011;52639;51.180;20.460;2023-04-25T09:16:57;11.63;;;7.32;;
65863;SDS011;52639;51.180;20.460;2023-04-25T09:21:05;9.57;;;5.60;;
65863;SDS011;52639;51.180;20.460;2023-04-25T09:25:09;9.43;;;5.47;;
65863;SDS011;52639;51.180;20.460;2023-04-25T09:29:14;11.93;;;7.80;;
65863;SDS011;52639;51.180;20.460;2023-04-25T09:33:17;12.02;;;6.65;;
65863;SDS011;52639;51.180;20.460;2023-04-25T09:37:21;9.85;;;7.20;;
65863;SDS011;52639;51.180;20.460;2023-04-25T09:41:25;10.63;;;5.93;;
65863;SDS011;52639;51.180;20.460;2023-04-25T09:45:30;12.98;;;7.03;;
65863;SDS011;52639;51.180;20.460;2023-04-25T09:49:33;16.95;;;8.13;;
65863;SDS011;52639;51.180;20.460;2023-04-25T09:53:36;14.25;;;7.60;;
65863;SDS011;52639;51.180;20.460;2023-04-25T09:57:40;12.25;;;6.95;;
65863;SDS011;52639;51.180;20.460;2023-04-25T10:01:46;13.93;;;8.02;;
65863;SDS011;52639;51.180;20.460;2023-04-25T10:05:51;12.63;;;7.50;;
65863;SDS011;52639;51.180;20.460;2023-04-25T10:09:57;17.50;;;8.25;;
65863;SDS011;52639;51.180;20.460;2023-04-25T10:14:03;24.08;;;8.43;;
65863;SDS011;52639;51.180;20.460;2023-04-25T10:18:09;12.60;;;8.63;;
65863;SDS011;52639;51.180;20.460;2023-04-25T10:22:15;17.38;;;8.05;;
65863;SDS011;52639;51.180;20.460;2023-04-25T10:26:21;17.92;;;7.85;;
65863;SDS011;52639;51.180;20.460;2023-04-25T10:30:24;13.85;;;8.13;;
65863;SDS011;52639;51.180;20.460;2023-04-25T10:34:39;17.13;;;8.52;;
65863;SDS011;52639;51.180;20.460;2023-04-25T10:38:43;15.68;;;9.73;;
65863;SDS011;52639;51.180;20.460;2023-04-25T10:42:47;13.32;;;8.77;;
65863;SDS011;52639;51.180;20.460;2023-04-25T10:46:50;12.15;;;7.90;;
65863;SDS011;52639;51.180;20.460;2023-04-25T10:51:08;11.85;;;8.00;;
65863;SDS011;52639;51.180;20.460;2023-04-25T10:55:11;16.85;;;7.15;;
65863;SDS011;52639;51.180;20.460;2023-04-25T10:59:15;11.00;;;6.95;;
65863;SDS011;52639;51.180;20.460;2023-04-25T11:03:21;10.10;;;6.85;;
65863;SDS011;52639;51.180;20.460;2023-04-25T11:07:28;12.48;;;8.20;;
65863;SDS011;52639;51.180;20.460;2023-04-25T11:11:40;12.45;;;7.85;;
65863;SDS011;52639;51.180;20.460;2023-04-25T11:15:43;12.23;;;8.00;;
65863;SDS011;52639;51.180;20.460;2023-04-25T11:19:47;11.90;;;7.80;;
65863;SDS011;52639;51.180;20.460;2023-04-25T11:23:54;14.32;;;7.97;;
65863;SDS011;52639;51.180;20.460;2023-04-25T11:28:03;12.52;;;8.52;;
65863;SDS011;52639;51.180;20.460;2023-04-25T11:32:07;14.65;;;9.07;;
65863;SDS011;52639;51.180;20.460;2023-04-25T11:36:12;14.68;;;7.97;;
65863;SDS011;52639;51.180;20.460;2023-04-25T11:40:16;15.77;;;7.53;;
65863;SDS011;52639;51.180;20.460;2023-04-25T11:44:20;16.00;;;6.72;;
65863;SDS011;52639;51.180;20.460;2023-04-25T11:48:23;13.98;;;6.30;;
65863;SDS011;52639;51.180;20.460;2023-04-25T11:52:35;10.50;;;6.10;;
65863;SDS011;52639;51.180;20.460;2023-04-25T11:56:41;8.60;;;5.53;;
65863;SDS011;52639;51.180;20.460;2023-04-25T12:00:45;11.20;;;5.43;;
65863;SDS011;52639;51.180;20.460;2023-04-25T12:04:49;8.68;;;4.97;;
65863;SDS011;52639;51.180;20.460;2023-04-25T12:08:59;10.13;;;5.68;;
65863;SDS011;52639;51.180;20.460;2023-04-25T12:13:18;8.10;;;5.10;;
65863;SDS011;52639;51.180;20.460;2023-04-25T12:17:22;10.18;;;5.43;;
65863;SDS011;52639;51.180;20.460;2023-04-25T12:21:28;16.67;;;7.90;;
65863;SDS011;52639;51.180;20.460;2023-04-25T12:25:34;17.67;;;7.57;;
65863;SDS011;52639;51.180;20.460;2023-04-25T12:29:40;18.98;;;9.27;;
65863;SDS011;52639;51.180;20.460;2023-04-25T12:33:54;29.70;;;11.70;;
65863;SDS011;52639;51.180;20.460;2023-04-25T12:37:57;26.70;;;11.55;;
65863;SDS011;52639;51.180;20.460;2023-04-25T12:42:00;22.55;;;10.00;;
65863;SDS011;52639;51.180;20.460;2023-04-25T12:46:05;16.80;;;10.15;;
65863;SDS011;52639;51.180;20.460;2023-04-25T12:50:09;16.70;;;8.45;;
65863;SDS011;52639;51.180;20.460;2023-04-25T12:54:12;15.82;;;8.38;;
65863;SDS011;52639;51.180;20.460;2023-04-25T12:58:15;14.77;;;8.23;;
65863;SDS011;52639;51.180;20.460;2023-04-25T13:02:21;11.73;;;8.50;;
65863;SDS011;52639;51.180;20.460;2023-04-25T13:06:24;16.75;;;8.88;;
65863;SDS011;52639;51.180;20.460;2023-04-25T13:10:28;15.55;;;9.85;;
65863;SDS011;52639;51.180;20.460;2023-04-25T13:14:31;27.83;;;14.65;;
65863;SDS011;52639;51.180;20.460;2023-04-25T13:18:36;17.88;;;10.68;;
65863;SDS011;52639;51.180;20.460;2023-04-25T13:22:39;14.27;;;9.88;;
65863;SDS011;52639;51.180;20.460;2023-04-25T13:26:43;19.27;;;10.30;;
65863;SDS011;52639;51.180;20.460;2023-04-25T13:30:46;17.02;;;10.57;;
65863;SDS011;52639;51.180;20.460;2023-04-25T13:34:52;16.25;;;11.45;;
65863;SDS011;52639;51.180;20.460;2023-04-25T13:39:00;16.25;;;10.90;;
65863;SDS011;52639;51.180;20.460;2023-04-25T13:43:07;18.95;;;12.25;;
65863;SDS011;52639;51.180;20.460;2023-04-25T13:48:35;19.70;;;12.48;;
65863;SDS011;52639;51.180;20.460;2023-04-25T13:58:24;20.85;;;13.05;;
65863;SDS011;52639;51.180;20.460;2023-04-25T14:08:01;21.35;;;12.95;;
65863;SDS011;52639;51.180;20.460;2023-04-25T14:12:13;21.10;;;14.27;;
65863;SDS011;52639;51.180;20.460;2023-04-25T14:21:32;25.92;;;12.85;;
65863;SDS011;52639;51.180;20.460;2023-04-25T14:29:52;18.83;;;10.68;;
65863;SDS011;52639;51.180;20.460;2023-04-25T14:34:36;26.38;;;13.75;;
65863;SDS011;52639;51.180;20.460;2023-04-25T14:44:19;17.55;;;10.02;;
65863;SDS011;52639;51.180;20.460;2023-04-25T14:48:38;21.83;;;11.77;;
65863;SDS011;52639;51.180;20.460;2023-04-25T14:52:56;20.13;;;11.20;;
65863;SDS011;52639;51.180;20.460;2023-04-25T14:57:10;18.58;;;10.85;;
65863;SDS011;52639;51.180;20.460;2023-04-25T15:01:39;18.77;;;10.98;;
65863;SDS011;52639;51.180;20.460;2023-04-25T15:06:11;21.02;;;11.43;;
65863;SDS011;52639;51.180;20.460;2023-04-25T15:10:38;21.83;;;10.93;;
65863;SDS011;52639;51.180;20.460;2023-04-25T15:15:05;22.77;;;12.73;;
65863;SDS011;52639;51.180;20.460;2023-04-25T15:25:10;20.38;;;13.20;;
65863;SDS011;52639;51.180;20.460;2023-04-25T15:34:33;21.08;;;12.15;;
65863;SDS011;52639;51.180;20.460;2023-04-25T15:53:36;34.17;;;15.90;;
65863;SDS011;52639;51.180;20.460;2023-04-25T15:58:04;26.35;;;14.15;;
65863;SDS011;52639;51.180;20.460;2023-04-25T16:02:53;25.00;;;13.98;;
65863;SDS011;52639;51.180;20.460;2023-04-25T16:12:57;22.95;;;13.57;;
65863;SDS011;52639;51.180;20.460;2023-04-25T16:17:38;19.75;;;11.85;;
65863;SDS011;52639;51.180;20.460;2023-04-25T16:21:57;24.27;;;13.65;;
65863;SDS011;52639;51.180;20.460;2023-04-25T16:26:31;29.70;;;16.02;;
65863;SDS011;52639;51.180;20.460;2023-04-25T16:51:36;38.00;;;20.75;;
65863;SDS011;52639;51.180;20.460;2023-04-25T16:56:30;45.83;;;25.23;;
65863;SDS011;52639;51.180;20.460;2023-04-25T17:12:24;39.67;;;19.52;;
65863;SDS011;52639;51.180;20.460;2023-04-25T17:17:05;33.13;;;19.00;;
65863;SDS011;52639;51.180;20.460;2023-04-25T17:22:27;31.75;;;18.52;;
65863;SDS011;52639;51.180;20.460;2023-04-25T17:27:01;43.92;;;21.95;;
65863;SDS011;52639;51.180;20.460;2023-04-25T17:46:50;31.23;;;15.07;;
65863;SDS011;52639;51.180;20.460;2023-04-25T17:51:06;45.67;;;18.25;;
65863;SDS011;52639;51.180;20.460;2023-04-25T17:55:20;41.72;;;18.35;;
65863;SDS011;52639;51.180;20.460;2023-04-25T17:59:47;35.85;;;18.52;;
65863;SDS011;52639;51.180;20.460;2023-04-25T18:04:04;37.28;;;21.20;;
65863;SDS011;52639;51.180;20.460;2023-04-25T18:08:39;37.50;;;20.08;;
65863;SDS011;52639;51.180;20.460;2023-04-25T18:12:59;47.63;;;22.35;;
65863;SDS011;52639;51.180;20.460;2023-04-25T18:17:07;50.90;;;24.40;;
65863;SDS011;52639;51.180;20.460;2023-04-25T18:21:28;61.83;;;32.47;;
65863;SDS011;52639;51.180;20.460;2023-04-25T18:25:36;57.28;;;25.67;;
65863;SDS011;52639;51.180;20.460;2023-04-25T18:30:07;44.72;;;24.95;;
65863;SDS011;52639;51.180;20.460;2023-04-25T18:35:00;33.78;;;19.77;;
65863;SDS011;52639;51.180;20.460;2023-04-25T18:45:18;43.30;;;23.73;;
65863;SDS011;52639;51.180;20.460;2023-04-25T20:45:01;32.77;;;17.10;;
65863;SDS011;52639;51.180;20.460;2023-04-25T20:49:08;37.00;;;18.25;;
65863;SDS011;52639;51.180;20.460;2023-04-25T20:53:53;30.55;;;16.88;;
